Aérodrome :
LOGIN :

S'inscrire | Disclaimer

   EN    FR    IT 

 










Légende :    VFR   VFR Marginal   IFR   IFR Intensif   IFR Très Intensif
Visi : 
Plafond : 
>= 8 km
>= 3000ft
5 à 8 km
1000 à 3000 ft
1500m à 5 km
500 à 1000 ft
800 à 1500m
200 à 500 ft
< 800m
< 200 ft
Symboles :   Orages  Brouillard  Fortes neiges  Fortes précipitations  Vent > 20 kt
SIGMETs :   Divers  Orages  Givrage  Turbulence  Onde Orograph.  Cendres Volcan.






- Altitude de l'aérodrome : 1411 ft
- Code IATA : SZG


LOWS - Salzburg

DERNIER METAR :
  • 121220Z 01005KT 310V070 9999 FEW050 21/07 Q1025 NOSIG

METARs EXPIRÉS :
  • 121150Z 33007KT 300V360 9999 FEW050 20/07 Q1026 NOSIG
  • 121120Z 02007KT 350V050 9999 FEW050 20/08 Q1026 NOSIG
  • 121050Z 06006KT 010V100 9999 FEW050 19/09 Q1026 NOSIG
  • 121020Z 03006KT 360V060 9999 FEW045 19/08 Q1026 NOSIG
  • 120950Z 01007KT 350V090 9999 FEW045 19/11 Q1026 NOSIG

TAF TAF LOWS
Valide du 12 à 12h jusqu'au 13 à 12h UTC


121115Z 1212/1312 02006KT 9999 FEW060 TX21/1312Z TN09/1304Z
BECMG 1218/1220 15005KT CAVOK
BECMG 1308/1310 02008KT 9999 FEW060



MET'MAP, la Météo Aéronautique d'un coup d'oeil ! - Copyright ORBIFLY Décembre 2007 - Disclaimer

ORBIFLY MET'MAP TEAM :

Programmation & Développement : Alexandra Zaïnal
Sur une idée originale de : Baudouin d'Aumeries
Assistance à la programmation : Marc-Olivier Méhu
Soutien technique & logistique : Manuel Goepfert

Contact : metmap@orbifly.com




SOURCES & CREDITS :

   NOAA